createdAt,value
2023-02-28T00:01:29.610Z,5.56
2023-02-28T00:03:57.128Z,5.42
2023-02-28T00:06:25.419Z,5.30
2023-02-28T00:08:52.942Z,5.21
2023-02-28T00:11:20.464Z,5.26
2023-02-28T00:13:48.773Z,5.17
2023-02-28T00:16:22.154Z,5.11
2023-02-28T00:18:50.062Z,5.13
2023-02-28T00:21:19.167Z,5.13
2023-02-28T00:23:47.025Z,5.27
2023-02-28T00:26:14.494Z,5.29
2023-02-28T00:28:45.856Z,5.34
2023-02-28T00:31:13.453Z,5.28
2023-02-28T00:33:40.926Z,5.11
2023-02-28T00:36:11.486Z,5.21
2023-02-28T00:38:40.087Z,5.18
2023-02-28T00:41:08.405Z,5.26
2023-02-28T00:43:38.496Z,5.11
2023-02-28T00:46:07.206Z,5.16
2023-02-28T00:48:34.843Z,5.06
2023-02-28T00:51:02.403Z,5.07
2023-02-28T00:53:30.419Z,5.02
2023-02-28T00:55:59.516Z,4.96
2023-02-28T00:58:27.703Z,5.01
2023-02-28T01:00:55.148Z,4.99
2023-02-28T01:03:23.657Z,4.95
2023-02-28T01:05:51.574Z,4.97
2023-02-28T01:08:18.862Z,4.88
2023-02-28T01:10:46.502Z,5.00
2023-02-28T01:13:14.372Z,4.94
2023-02-28T01:15:45.482Z,4.97
2023-02-28T01:18:13.146Z,4.98
2023-02-28T01:20:40.496Z,5.01
2023-02-28T01:23:07.827Z,4.99
2023-02-28T01:25:36.982Z,4.96
2023-02-28T01:28:06.986Z,4.95
2023-02-28T01:30:35.684Z,4.88
2023-02-28T01:33:03.035Z,4.83
2023-02-28T01:35:34.190Z,4.80
2023-02-28T01:38:15.763Z,4.79
2023-02-28T01:40:48.770Z,4.85
2023-02-28T01:43:31.124Z,4.81
2023-02-28T01:46:00.220Z,4.77
2023-02-28T01:48:35.109Z,4.74
2023-02-28T01:51:07.872Z,4.82
2023-02-28T01:53:48.718Z,4.72
2023-02-28T01:56:21.582Z,4.74
2023-02-28T01:58:54.571Z,4.67
2023-02-28T02:01:23.545Z,4.73
2023-02-28T02:04:00.024Z,4.72
2023-02-28T02:06:35.072Z,4.72
2023-02-28T02:09:03.008Z,4.66
2023-02-28T02:11:31.423Z,4.62
2023-02-28T02:14:18.287Z,4.67
2023-02-28T02:17:15.953Z,4.64
2023-02-28T02:20:14.433Z,4.77
2023-02-28T02:23:03.502Z,4.84
2023-02-28T02:25:35.084Z,4.72
2023-02-28T02:28:18.174Z,4.81
2023-02-28T02:31:17.342Z,4.72
2023-02-28T02:34:17.833Z,4.79
2023-02-28T02:37:37.749Z,4.75
2023-02-28T02:40:17.431Z,4.83
2023-02-28T02:43:14.240Z,4.84
2023-02-28T02:45:48.889Z,4.87
2023-02-28T02:48:20.887Z,4.78
2023-02-28T02:50:56.852Z,4.81
2023-02-28T02:53:34.446Z,4.82
2023-02-28T02:56:04.827Z,4.76
2023-02-28T02:58:43.244Z,4.80
2023-02-28T03:01:26.156Z,4.81
2023-02-28T03:03:54.995Z,4.76
2023-02-28T03:06:22.433Z,4.83
2023-02-28T03:08:50.713Z,4.89
2023-02-28T03:11:21.432Z,4.92
2023-02-28T03:14:15.492Z,5.02
2023-02-28T03:17:01.985Z,5.03
2023-02-28T03:19:38.447Z,5.06
2023-02-28T03:22:26.047Z,5.11
2023-02-28T03:25:05.727Z,5.01
2023-02-28T03:27:45.103Z,4.99
2023-02-28T03:30:37.393Z,5.08
2023-02-28T03:33:09.306Z,5.03
2023-02-28T03:35:53.402Z,4.98
2023-02-28T03:38:39.189Z,4.97
2023-02-28T03:41:18.666Z,5.01
2023-02-28T03:43:54.696Z,4.98
2023-02-28T03:46:25.613Z,4.95
2023-02-28T03:48:58.703Z,4.83
2023-02-28T03:51:27.481Z,4.84
2023-02-28T03:54:00.906Z,4.87
2023-02-28T03:57:03.584Z,5.00
2023-02-28T03:59:48.361Z,4.97
2023-02-28T04:02:15.965Z,4.76
2023-02-28T04:04:49.396Z,4.71
2023-02-28T04:07:29.087Z,4.71
2023-02-28T04:09:56.777Z,4.53
2023-02-28T04:12:24.345Z,4.48
2023-02-28T04:14:52.104Z,4.50
2023-02-28T04:17:19.991Z,4.52
2023-02-28T04:19:47.415Z,4.44
2023-02-28T04:22:14.905Z,4.45
2023-02-28T04:24:42.559Z,4.37
2023-02-28T04:27:10.602Z,4.50
2023-02-28T04:29:38.057Z,4.54
2023-02-28T04:32:05.925Z,4.54
2023-02-28T04:34:33.899Z,4.69
2023-02-28T04:37:17.229Z,4.62
2023-02-28T04:39:44.783Z,4.57
2023-02-28T04:42:13.271Z,4.61
2023-02-28T04:44:40.675Z,4.50
2023-02-28T04:47:08.322Z,4.47
2023-02-28T04:49:35.768Z,4.39
2023-02-28T04:52:03.287Z,4.49
2023-02-28T04:54:30.907Z,4.61
2023-02-28T04:56:58.496Z,4.42
2023-02-28T04:59:25.969Z,4.46
2023-02-28T05:01:53.437Z,4.47
2023-02-28T05:04:20.903Z,4.54
2023-02-28T05:06:48.329Z,4.57
2023-02-28T05:09:15.664Z,4.54
2023-02-28T05:11:43.027Z,4.69
2023-02-28T05:14:14.355Z,4.79
2023-02-28T05:16:41.776Z,4.73
2023-02-28T05:19:09.341Z,4.73
2023-02-28T05:21:42.062Z,4.72
2023-02-28T05:24:13.094Z,4.62
2023-02-28T05:26:43.147Z,4.60
2023-02-28T05:29:11.029Z,4.62
2023-02-28T05:31:38.551Z,4.76
2023-02-28T05:34:06.142Z,4.61
2023-02-28T05:36:33.949Z,4.75
2023-02-28T05:39:01.325Z,4.78
2023-02-28T05:41:29.246Z,4.66
2023-02-28T05:43:58.699Z,4.53
2023-02-28T05:46:26.444Z,4.49
2023-02-28T05:48:53.879Z,4.53
2023-02-28T05:51:21.321Z,4.52
2023-02-28T05:53:50.231Z,4.52
2023-02-28T05:56:17.703Z,4.51
2023-02-28T05:58:45.007Z,4.60
2023-02-28T06:01:46.042Z,4.55
2023-02-28T06:04:30.406Z,4.47
2023-02-28T06:06:59.335Z,4.51
2023-02-28T06:09:26.706Z,4.61
2023-02-28T06:11:55.136Z,4.53
2023-02-28T06:14:22.569Z,4.52
2023-02-28T06:16:50.001Z,4.46
2023-02-28T06:19:18.205Z,4.51
2023-02-28T06:21:46.242Z,4.44
2023-02-28T06:24:13.653Z,4.60
2023-02-28T06:26:41.007Z,4.59
2023-02-28T06:29:09.806Z,4.59
2023-02-28T06:31:37.322Z,4.63
2023-02-28T06:34:05.085Z,4.66
2023-02-28T06:36:32.455Z,4.53
2023-02-28T06:38:59.810Z,4.58
2023-02-28T06:41:28.687Z,4.60
2023-02-28T06:43:56.504Z,4.58
2023-02-28T06:46:24.491Z,4.65
2023-02-28T06:48:51.954Z,4.62
2023-02-28T06:51:23.143Z,4.67
2023-02-28T06:53:50.718Z,4.74
2023-02-28T06:56:21.190Z,4.69
2023-02-28T06:58:50.747Z,4.83
2023-02-28T07:01:18.446Z,4.94
2023-02-28T07:03:46.942Z,4.84
2023-02-28T07:06:14.301Z,4.99
2023-02-28T07:08:42.176Z,5.10
2023-02-28T07:11:09.825Z,5.18
2023-02-28T07:13:37.908Z,5.17
2023-02-28T07:16:09.900Z,5.16
2023-02-28T07:18:38.424Z,5.24
2023-02-28T07:21:09.345Z,5.22
2023-02-28T07:23:39.030Z,5.34
2023-02-28T07:26:07.843Z,5.25
2023-02-28T07:28:35.282Z,5.29
2023-02-28T07:31:06.823Z,5.50
2023-02-28T07:33:35.057Z,5.59
2023-02-28T07:36:07.436Z,5.60
2023-02-28T07:38:36.764Z,5.51
2023-02-28T07:41:07.674Z,5.54
2023-02-28T07:43:35.839Z,5.71
2023-02-28T07:46:10.041Z,6.35
2023-02-28T07:48:37.887Z,6.54
2023-02-28T07:51:05.678Z,6.25
2023-02-28T07:53:33.578Z,6.13
2023-02-28T07:56:02.903Z,6.99
2023-02-28T07:58:31.854Z,7.23
2023-02-28T08:01:07.392Z,7.27
2023-02-28T08:03:34.949Z,7.23
2023-02-28T08:06:09.047Z,7.24
2023-02-28T08:08:36.550Z,7.40
2023-02-28T08:11:04.672Z,8.04
2023-02-28T08:13:32.466Z,8.24
2023-02-28T08:16:03.073Z,8.09
2023-02-28T08:18:30.543Z,7.69
2023-02-28T08:20:58.503Z,7.61
2023-02-28T08:23:25.832Z,7.44
2023-02-28T08:25:57.433Z,7.29
2023-02-28T08:28:27.114Z,7.46
2023-02-28T08:30:56.322Z,7.29
2023-02-28T08:33:24.753Z,7.78
2023-02-28T08:35:56.465Z,8.28
2023-02-28T08:38:25.241Z,8.74
2023-02-28T08:41:00.018Z,9.18
2023-02-28T08:43:28.077Z,9.58
2023-02-28T08:45:58.640Z,9.77
2023-02-28T08:48:27.652Z,11.15
2023-02-28T08:51:10.385Z,11.18
2023-02-28T08:53:38.487Z,10.61
2023-02-28T08:56:17.641Z,11.23
2023-02-28T08:58:47.098Z,10.40
2023-02-28T09:01:17.141Z,9.96
2023-02-28T09:03:47.165Z,9.18
2023-02-28T09:06:51.526Z,9.44
2023-02-28T09:09:18.907Z,10.32
2023-02-28T09:11:46.325Z,10.35
2023-02-28T09:14:13.680Z,10.73
2023-02-28T09:16:41.171Z,10.57
2023-02-28T09:19:12.752Z,10.10
2023-02-28T09:21:40.716Z,10.04
2023-02-28T09:24:08.664Z,9.82
2023-02-28T09:26:42.729Z,9.07
2023-02-28T09:29:12.047Z,9.27
2023-02-28T09:31:39.549Z,8.79
2023-02-28T09:34:07.871Z,8.54
2023-02-28T09:36:44.706Z,8.78
2023-02-28T09:39:15.494Z,8.51
2023-02-28T09:41:51.392Z,8.32
2023-02-28T09:44:37.473Z,8.37
2023-02-28T09:47:27.980Z,8.70
2023-02-28T09:49:58.099Z,8.48
2023-02-28T09:52:31.329Z,8.59
2023-02-28T09:55:21.973Z,8.22
2023-02-28T09:57:52.050Z,8.21
2023-02-28T10:00:25.878Z,8.29
2023-02-28T10:03:04.011Z,8.30
2023-02-28T10:05:36.750Z,8.26
2023-02-28T10:08:19.078Z,8.16
2023-02-28T10:10:50.047Z,8.11
2023-02-28T10:13:32.705Z,8.20
2023-02-28T10:16:05.524Z,8.37
2023-02-28T10:18:43.594Z,8.31
2023-02-28T10:21:43.362Z,8.50
2023-02-28T10:24:34.096Z,8.31
2023-02-28T10:27:15.369Z,8.46
2023-02-28T10:29:49.092Z,8.48
2023-02-28T10:32:32.350Z,8.35
2023-02-28T10:35:18.281Z,8.46
2023-02-28T10:37:51.814Z,8.41
2023-02-28T10:40:19.236Z,8.77
2023-02-28T10:43:04.576Z,8.66
2023-02-28T10:45:38.214Z,8.75
2023-02-28T10:48:33.097Z,8.67
2023-02-28T10:51:01.513Z,8.55
2023-02-28T10:53:44.721Z,8.56
2023-02-28T10:56:25.427Z,8.86
2023-02-28T10:59:03.962Z,8.66
2023-02-28T11:01:31.823Z,8.76
2023-02-28T11:04:00.167Z,8.86
2023-02-28T11:06:35.819Z,8.94
2023-02-28T11:09:45.312Z,8.65
2023-02-28T11:12:24.667Z,8.56
2023-02-28T11:15:00.823Z,8.58
2023-02-28T11:17:31.852Z,8.65
2023-02-28T11:20:19.188Z,8.68
2023-02-28T11:22:47.387Z,8.85
2023-02-28T11:25:26.588Z,8.78
2023-02-28T11:27:57.429Z,9.02
2023-02-28T11:30:29.960Z,9.10
2023-02-28T11:32:57.490Z,9.16
2023-02-28T11:35:41.472Z,9.15
2023-02-28T11:38:13.921Z,9.09
2023-02-28T11:41:09.168Z,9.27
2023-02-28T11:43:58.278Z,9.16
2023-02-28T11:46:39.081Z,9.22
2023-02-28T11:49:32.401Z,9.40
2023-02-28T11:52:09.690Z,9.32
2023-02-28T11:55:01.480Z,9.39
2023-02-28T11:57:59.433Z,9.51
2023-02-28T12:00:39.492Z,9.41
2023-02-28T12:03:29.830Z,9.22
2023-02-28T12:06:10.269Z,9.54
2023-02-28T12:09:15.186Z,9.48
2023-02-28T12:12:11.609Z,9.58
2023-02-28T12:14:51.254Z,9.42
2023-02-28T12:17:27.862Z,9.48
2023-02-28T12:20:14.091Z,9.63
2023-02-28T12:22:53.667Z,9.57
2023-02-28T12:25:49.240Z,9.63
2023-02-28T12:28:22.967Z,9.63
2023-02-28T12:31:02.382Z,9.54
2023-02-28T12:33:41.691Z,9.57
2023-02-28T12:36:13.344Z,9.63
2023-02-28T12:38:45.066Z,9.67
2023-02-28T12:41:35.870Z,9.85
2023-02-28T12:44:12.685Z,9.77
2023-02-28T12:46:44.021Z,9.56
2023-02-28T12:49:21.420Z,9.57
2023-02-28T12:51:51.102Z,9.78
2023-02-28T12:54:39.140Z,9.79
2023-02-28T12:57:17.010Z,9.98
2023-02-28T12:59:54.787Z,10.04
2023-02-28T13:02:31.241Z,9.75
2023-02-28T13:05:11.143Z,9.89
2023-02-28T13:08:25.770Z,9.93
2023-02-28T13:10:55.662Z,9.72
2023-02-28T13:13:26.881Z,9.79
2023-02-28T13:16:08.157Z,9.76
2023-02-28T13:18:44.501Z,9.99
2023-02-28T13:21:28.216Z,10.04
2023-02-28T13:24:02.128Z,9.85
2023-02-28T13:26:32.230Z,9.99
2023-02-28T13:29:05.443Z,9.99
2023-02-28T13:31:35.180Z,10.04
2023-02-28T13:34:13.392Z,9.89
2023-02-28T13:36:40.985Z,9.99
2023-02-28T13:39:37.810Z,9.89
2023-02-28T13:42:31.302Z,10.07
2023-02-28T13:45:04.799Z,10.14
2023-02-28T13:47:37.793Z,9.96
2023-02-28T13:50:26.965Z,9.93
2023-02-28T13:53:12.348Z,10.06
2023-02-28T13:56:09.469Z,10.00
2023-02-28T13:58:54.030Z,9.92
2023-02-28T14:01:44.377Z,9.85
2023-02-28T14:04:45.748Z,9.95
2023-02-28T14:07:26.523Z,9.94
2023-02-28T14:10:00.739Z,10.07
2023-02-28T14:12:58.987Z,10.23
2023-02-28T14:15:35.320Z,10.26
2023-02-28T14:18:06.678Z,10.13
2023-02-28T14:20:35.232Z,10.09
2023-02-28T14:23:11.743Z,10.15
2023-02-28T14:25:55.391Z,10.19
2023-02-28T14:28:33.830Z,10.10
2023-02-28T14:31:15.660Z,10.06
2023-02-28T14:34:01.364Z,9.91
2023-02-28T14:36:34.307Z,9.95
2023-02-28T14:39:06.998Z,10.19
2023-02-28T14:41:38.395Z,10.32
2023-02-28T14:44:19.375Z,10.24
2023-02-28T14:46:50.958Z,10.12
2023-02-28T14:49:18.305Z,10.15
2023-02-28T14:51:46.183Z,10.18
2023-02-28T14:54:17.036Z,10.20
2023-02-28T14:56:44.571Z,10.28
2023-02-28T14:59:27.392Z,10.31
2023-02-28T15:02:15.971Z,10.20
2023-02-28T15:04:43.534Z,10.17
2023-02-28T15:07:16.071Z,10.11
2023-02-28T15:09:43.767Z,10.03
2023-02-28T15:12:16.238Z,10.03
2023-02-28T15:14:45.352Z,10.00
2023-02-28T15:17:22.295Z,10.06
2023-02-28T15:19:53.189Z,9.95
2023-02-28T15:22:30.342Z,9.96
2023-02-28T15:24:58.311Z,10.15
2023-02-28T15:27:33.169Z,10.33
2023-02-28T15:30:08.686Z,10.27
2023-02-28T15:32:39.826Z,10.22
2023-02-28T15:35:29.762Z,10.10
2023-02-28T15:38:15.673Z,10.03
2023-02-28T15:40:46.282Z,10.03
2023-02-28T15:43:17.748Z,10.09
2023-02-28T15:45:51.211Z,9.96
2023-02-28T15:48:20.985Z,9.94
2023-02-28T15:50:52.564Z,9.97
2023-02-28T15:53:24.668Z,10.03
2023-02-28T15:56:08.796Z,10.02
2023-02-28T15:58:37.996Z,9.95
2023-02-28T16:01:09.571Z,9.81
2023-02-28T16:03:41.893Z,9.88
2023-02-28T16:06:30.442Z,9.81
2023-02-28T16:08:57.802Z,9.72
2023-02-28T16:11:25.378Z,9.63
2023-02-28T16:13:54.086Z,9.61
2023-02-28T16:16:25.338Z,9.67
2023-02-28T16:18:53.556Z,9.55
2023-02-28T16:21:21.010Z,9.54
2023-02-28T16:23:48.466Z,9.55
2023-02-28T16:26:24.350Z,9.55
2023-02-28T16:28:52.872Z,9.59
2023-02-28T16:31:20.814Z,9.45
2023-02-28T16:33:48.214Z,9.45
2023-02-28T16:36:21.976Z,9.52
2023-02-28T16:38:49.447Z,9.42
2023-02-28T16:41:21.713Z,9.43
2023-02-28T16:43:52.387Z,9.35
2023-02-28T16:46:20.867Z,9.35
2023-02-28T16:48:52.541Z,9.33
2023-02-28T16:51:20.099Z,9.32
2023-02-28T16:53:48.291Z,9.25
2023-02-28T16:56:21.196Z,9.24
2023-02-28T16:58:50.296Z,9.20
2023-02-28T17:01:22.876Z,9.19
2023-02-28T17:03:50.553Z,9.15
2023-02-28T17:06:24.187Z,9.06
2023-02-28T17:08:52.487Z,9.04
2023-02-28T17:11:20.526Z,9.08
2023-02-28T17:13:48.668Z,9.08
2023-02-28T17:16:33.647Z,9.08
2023-02-28T17:19:04.120Z,9.02
2023-02-28T17:21:32.674Z,9.05
2023-02-28T17:24:01.200Z,9.04
2023-02-28T17:26:29.284Z,8.98
2023-02-28T17:28:58.357Z,8.95
2023-02-28T17:31:26.719Z,8.84
2023-02-28T17:33:55.624Z,8.84
2023-02-28T17:36:26.880Z,8.74
2023-02-28T17:38:56.297Z,8.79
2023-02-28T17:41:23.812Z,8.64
2023-02-28T17:43:51.928Z,8.59
2023-02-28T17:46:24.193Z,8.55
2023-02-28T17:48:53.451Z,8.49
2023-02-28T17:51:22.670Z,8.39
2023-02-28T17:53:50.182Z,8.45
2023-02-28T17:56:21.036Z,8.29
2023-02-28T17:58:48.652Z,8.26
2023-02-28T18:01:16.375Z,8.26
2023-02-28T18:03:43.935Z,8.26
2023-02-28T18:06:20.667Z,8.28
2023-02-28T18:08:52.412Z,8.20
2023-02-28T18:11:21.517Z,8.14
2023-02-28T18:13:53.440Z,8.15
2023-02-28T18:16:25.395Z,8.11
2023-02-28T18:18:53.325Z,8.03
2023-02-28T18:21:20.750Z,7.93
2023-02-28T18:23:48.619Z,7.96
2023-02-28T18:26:17.566Z,7.86
2023-02-28T18:28:46.076Z,7.91
2023-02-28T18:31:16.320Z,7.82
2023-02-28T18:33:44.809Z,7.85
2023-02-28T18:36:12.176Z,7.73
2023-02-28T18:38:40.268Z,7.77
2023-02-28T18:41:08.397Z,7.74
2023-02-28T18:43:40.738Z,7.81
2023-02-28T18:46:10.685Z,7.87
2023-02-28T18:48:38.647Z,7.84
2023-02-28T18:51:11.265Z,7.80
2023-02-28T18:53:40.562Z,7.79
2023-02-28T18:56:10.654Z,7.74
2023-02-28T18:58:38.025Z,7.73
2023-02-28T19:01:15.496Z,7.61
2023-02-28T19:03:43.355Z,7.50
2023-02-28T19:06:11.598Z,7.49
2023-02-28T19:08:39.256Z,7.53
2023-02-28T19:11:16.001Z,7.55
2023-02-28T19:13:43.937Z,7.44
2023-02-28T19:16:12.903Z,7.27
2023-02-28T19:18:41.026Z,7.45
2023-02-28T19:21:10.571Z,7.59
2023-02-28T19:23:39.379Z,7.53
2023-02-28T19:26:08.922Z,7.42
2023-02-28T19:28:36.538Z,7.42
2023-02-28T19:31:04.509Z,7.40
2023-02-28T19:33:32.348Z,7.46
2023-02-28T19:36:01.352Z,7.43
2023-02-28T19:38:28.800Z,7.42
2023-02-28T19:41:05.745Z,7.49
2023-02-28T19:43:33.504Z,7.40
2023-02-28T19:46:01.392Z,7.40
2023-02-28T19:48:29.341Z,7.31
2023-02-28T19:51:02.104Z,7.27
2023-02-28T19:53:31.060Z,7.31
2023-02-28T19:56:00.462Z,7.35
2023-02-28T19:58:28.253Z,7.32
2023-02-28T20:00:56.052Z,7.14
2023-02-28T20:03:25.232Z,6.94
2023-02-28T20:06:05.202Z,6.83
2023-02-28T20:08:32.878Z,7.01
2023-02-28T20:11:12.448Z,7.24
2023-02-28T20:13:39.941Z,7.18
2023-02-28T20:16:10.824Z,7.01
2023-02-28T20:18:39.911Z,6.97
2023-02-28T20:21:12.233Z,6.82
2023-02-28T20:23:41.246Z,6.89
2023-02-28T20:26:10.055Z,6.64
2023-02-28T20:28:38.486Z,6.52
2023-02-28T20:31:14.002Z,6.64
2023-02-28T20:33:44.393Z,6.76
2023-02-28T20:36:13.567Z,6.75
2023-02-28T20:38:41.701Z,6.61
2023-02-28T20:41:09.478Z,6.71
2023-02-28T20:43:37.500Z,6.59
2023-02-28T20:46:05.194Z,6.54
2023-02-28T20:48:35.911Z,6.49
2023-02-28T20:51:07.300Z,6.54
2023-02-28T20:53:36.418Z,6.45
2023-02-28T20:56:05.938Z,6.59
2023-02-28T20:58:36.560Z,6.58
2023-02-28T21:01:27.386Z,6.44
2023-02-28T21:03:56.352Z,6.36
2023-02-28T21:06:26.560Z,6.36
2023-02-28T21:08:54.752Z,6.34
2023-02-28T21:11:32.137Z,6.28
2023-02-28T21:14:01.725Z,6.36
2023-02-28T21:16:29.912Z,6.33
2023-02-28T21:19:04.052Z,6.39
2023-02-28T21:21:44.000Z,6.36
2023-02-28T21:24:12.778Z,6.35
2023-02-28T21:26:41.355Z,6.35
2023-02-28T21:29:10.915Z,6.27
2023-02-28T21:31:38.441Z,6.37
2023-02-28T21:34:08.097Z,6.37
2023-02-28T21:36:41.454Z,6.39
2023-02-28T21:39:25.732Z,6.44
2023-02-28T21:41:53.844Z,6.41
2023-02-28T21:44:22.845Z,6.51
2023-02-28T21:46:56.896Z,6.53
2023-02-28T21:49:24.396Z,6.46
2023-02-28T21:51:51.821Z,6.48
2023-02-28T21:54:19.284Z,6.45
2023-02-28T21:56:46.677Z,6.46
2023-02-28T21:59:14.017Z,6.51
2023-02-28T22:01:46.310Z,6.51
2023-02-28T22:04:22.471Z,6.57
2023-02-28T22:06:57.240Z,6.60
2023-02-28T22:09:25.852Z,6.63
2023-02-28T22:11:53.307Z,6.61
2023-02-28T22:14:21.038Z,6.60
2023-02-28T22:16:52.610Z,6.51
2023-02-28T22:19:21.683Z,6.37
2023-02-28T22:21:50.372Z,6.27
2023-02-28T22:24:20.624Z,6.14
2023-02-28T22:26:49.482Z,6.22
2023-02-28T22:29:16.971Z,6.01
2023-02-28T22:31:44.387Z,6.00
2023-02-28T22:34:12.656Z,6.06
2023-02-28T22:36:42.293Z,5.91
2023-02-28T22:39:10.687Z,5.85
2023-02-28T22:41:39.086Z,5.96
2023-02-28T22:44:07.359Z,5.92
2023-02-28T22:46:35.627Z,6.08
2023-02-28T22:49:04.745Z,6.16
2023-02-28T22:51:32.164Z,6.06
2023-02-28T22:53:59.720Z,6.05
2023-02-28T22:56:29.474Z,5.85
2023-02-28T22:58:59.559Z,5.96
2023-02-28T23:01:29.620Z,5.90
2023-02-28T23:03:57.769Z,5.92
2023-02-28T23:06:33.510Z,6.01
2023-02-28T23:09:05.423Z,6.17
2023-02-28T23:11:37.945Z,6.25
2023-02-28T23:14:05.692Z,6.22
2023-02-28T23:16:37.896Z,6.21
2023-02-28T23:19:08.477Z,6.24
2023-02-28T23:21:36.706Z,5.99
2023-02-28T23:24:05.602Z,5.81
2023-02-28T23:26:33.280Z,5.81
2023-02-28T23:29:01.225Z,5.69
2023-02-28T23:31:28.668Z,5.66
2023-02-28T23:33:56.938Z,5.62
2023-02-28T23:36:24.523Z,5.33
2023-02-28T23:38:53.067Z,5.32
2023-02-28T23:41:22.169Z,5.46
2023-02-28T23:43:51.188Z,5.44
2023-02-28T23:46:20.871Z,5.57
2023-02-28T23:48:48.461Z,5.69
2023-02-28T23:51:19.736Z,5.77
2023-02-28T23:53:50.332Z,5.73
2023-02-28T23:56:22.000Z,5.64
2023-02-28T23:58:50.363Z,5.55
